sensor_id;sensor_type;location;lat;lon;timestamp;P1;durP1;ratioP1;P2;durP2;ratioP2
75732;SDS011;64435;47.424;19.400;2022-12-07T00:03:40;56.35;;;23.17;;
75732;SDS011;64435;47.424;19.400;2022-12-07T00:06:07;43.85;;;21.12;;
75732;SDS011;64435;47.424;19.400;2022-12-07T00:08:34;51.63;;;22.55;;
75732;SDS011;64435;47.424;19.400;2022-12-07T00:11:01;56.40;;;24.13;;
75732;SDS011;64435;47.424;19.400;2022-12-07T00:13:36;60.12;;;23.45;;
75732;SDS011;64435;47.424;19.400;2022-12-07T00:16:03;51.25;;;23.52;;
75732;SDS011;64435;47.424;19.400;2022-12-07T00:18:34;59.80;;;24.12;;
75732;SDS011;64435;47.424;19.400;2022-12-07T00:21:10;54.30;;;21.77;;
75732;SDS011;64435;47.424;19.400;2022-12-07T00:23:35;62.95;;;22.65;;
75732;SDS011;64435;47.424;19.400;2022-12-07T00:26:20;46.73;;;20.67;;
75732;SDS011;64435;47.424;19.400;2022-12-07T00:28:52;55.42;;;19.98;;
75732;SDS011;64435;47.424;19.400;2022-12-07T00:31:22;49.05;;;19.48;;
75732;SDS011;64435;47.424;19.400;2022-12-07T00:33:49;48.78;;;20.23;;
75732;SDS011;64435;47.424;19.400;2022-12-07T00:36:15;47.27;;;20.03;;
75732;SDS011;64435;47.424;19.400;2022-12-07T00:38:42;48.08;;;20.20;;
75732;SDS011;64435;47.424;19.400;2022-12-07T00:41:12;46.63;;;19.97;;
75732;SDS011;64435;47.424;19.400;2022-12-07T00:43:39;45.35;;;20.25;;
75732;SDS011;64435;47.424;19.400;2022-12-07T00:46:05;53.00;;;20.12;;
75732;SDS011;64435;47.424;19.400;2022-12-07T00:48:31;44.17;;;19.33;;
75732;SDS011;64435;47.424;19.400;2022-12-07T00:50:57;43.33;;;19.37;;
75732;SDS011;64435;47.424;19.400;2022-12-07T00:53:22;46.57;;;20.00;;
75732;SDS011;64435;47.424;19.400;2022-12-07T00:55:48;43.90;;;19.73;;
75732;SDS011;64435;47.424;19.400;2022-12-07T00:58:13;47.80;;;19.80;;
75732;SDS011;64435;47.424;19.400;2022-12-07T01:00:40;50.70;;;20.63;;
75732;SDS011;64435;47.424;19.400;2022-12-07T01:03:07;46.55;;;18.70;;
75732;SDS011;64435;47.424;19.400;2022-12-07T01:05:34;45.47;;;19.75;;
75732;SDS011;64435;47.424;19.400;2022-12-07T01:07:59;40.47;;;16.67;;
75732;SDS011;64435;47.424;19.400;2022-12-07T01:10:26;34.17;;;16.10;;
75732;SDS011;64435;47.424;19.400;2022-12-07T01:12:52;42.27;;;16.13;;
75732;SDS011;64435;47.424;19.400;2022-12-07T01:15:17;37.78;;;15.50;;
75732;SDS011;64435;47.424;19.400;2022-12-07T01:17:43;32.00;;;14.87;;
75732;SDS011;64435;47.424;19.400;2022-12-07T01:20:08;34.87;;;15.27;;
75732;SDS011;64435;47.424;19.400;2022-12-07T01:22:38;34.70;;;16.42;;
75732;SDS011;64435;47.424;19.400;2022-12-07T01:25:07;34.95;;;15.45;;
75732;SDS011;64435;47.424;19.400;2022-12-07T01:27:33;31.87;;;14.55;;
75732;SDS011;64435;47.424;19.400;2022-12-07T01:29:59;37.93;;;15.90;;
75732;SDS011;64435;47.424;19.400;2022-12-07T01:32:24;27.65;;;13.25;;
75732;SDS011;64435;47.424;19.400;2022-12-07T01:34:50;33.40;;;15.13;;
75732;SDS011;64435;47.424;19.400;2022-12-07T01:37:15;32.83;;;16.87;;
75732;SDS011;64435;47.424;19.400;2022-12-07T01:39:41;35.17;;;15.23;;
75732;SDS011;64435;47.424;19.400;2022-12-07T01:42:10;35.03;;;14.63;;
75732;SDS011;64435;47.424;19.400;2022-12-07T01:47:39;49.92;;;16.65;;
75732;SDS011;64435;47.424;19.400;2022-12-07T01:50:05;69.68;;;15.90;;
75732;SDS011;64435;47.424;19.400;2022-12-07T01:52:31;71.97;;;17.67;;
75732;SDS011;64435;47.424;19.400;2022-12-07T01:55:03;132.40;;;19.73;;
75732;SDS011;64435;47.424;19.400;2022-12-07T01:57:30;87.18;;;20.25;;
75732;SDS011;64435;47.424;19.400;2022-12-07T01:59:57;70.37;;;15.63;;
75732;SDS011;64435;47.424;19.400;2022-12-07T02:02:27;69.00;;;17.52;;
75732;SDS011;64435;47.424;19.400;2022-12-07T02:04:57;48.17;;;15.40;;
75732;SDS011;64435;47.424;19.400;2022-12-07T02:07:24;63.60;;;16.77;;
75732;SDS011;64435;47.424;19.400;2022-12-07T02:09:50;49.50;;;15.57;;
75732;SDS011;64435;47.424;19.400;2022-12-07T02:12:15;65.67;;;16.10;;
75732;SDS011;64435;47.424;19.400;2022-12-07T02:14:41;51.72;;;15.48;;
75732;SDS011;64435;47.424;19.400;2022-12-07T02:17:29;55.97;;;15.77;;
75732;SDS011;64435;47.424;19.400;2022-12-07T02:28:34;61.28;;;14.68;;
75732;SDS011;64435;47.424;19.400;2022-12-07T02:31:20;50.85;;;13.30;;
75732;SDS011;64435;47.424;19.400;2022-12-07T02:33:53;64.12;;;14.40;;
75732;SDS011;64435;47.424;19.400;2022-12-07T02:36:25;63.47;;;15.50;;
75732;SDS011;64435;47.424;19.400;2022-12-07T02:39:54;42.50;;;14.60;;
75732;SDS011;64435;47.424;19.400;2022-12-07T02:42:01;107.03;;;16.35;;
75732;SDS011;64435;47.424;19.400;2022-12-07T02:44:28;60.35;;;14.73;;
75732;SDS011;64435;47.424;19.400;2022-12-07T02:46:56;49.20;;;15.60;;
75732;SDS011;64435;47.424;19.400;2022-12-07T02:49:23;54.13;;;14.97;;
75732;SDS011;64435;47.424;19.400;2022-12-07T02:51:49;56.35;;;15.73;;
75732;SDS011;64435;47.424;19.400;2022-12-07T02:54:18;50.97;;;15.05;;
75732;SDS011;64435;47.424;19.400;2022-12-07T03:00:11;107.73;;;16.80;;
75732;SDS011;64435;47.424;19.400;2022-12-07T03:07:40;54.40;;;15.82;;
75732;SDS011;64435;47.424;19.400;2022-12-07T03:18:21;60.38;;;15.55;;
75732;SDS011;64435;47.424;19.400;2022-12-07T03:20:48;56.20;;;14.52;;
75732;SDS011;64435;47.424;19.400;2022-12-07T03:23:16;59.42;;;15.98;;
75732;SDS011;64435;47.424;19.400;2022-12-07T03:25:45;54.13;;;14.80;;
75732;SDS011;64435;47.424;19.400;2022-12-07T03:28:13;54.42;;;15.57;;
75732;SDS011;64435;47.424;19.400;2022-12-07T03:30:56;40.10;;;15.57;;
75732;SDS011;64435;47.424;19.400;2022-12-07T03:34:13;46.83;;;15.50;;
75732;SDS011;64435;47.424;19.400;2022-12-07T03:36:23;30.98;;;14.35;;
75732;SDS011;64435;47.424;19.400;2022-12-07T03:39:33;44.90;;;15.50;;
75732;SDS011;64435;47.424;19.400;2022-12-07T03:42:02;32.75;;;14.32;;
75732;SDS011;64435;47.424;19.400;2022-12-07T03:44:32;38.72;;;16.23;;
75732;SDS011;64435;47.424;19.400;2022-12-07T03:52:26;46.87;;;14.20;;
75732;SDS011;64435;47.424;19.400;2022-12-07T03:57:34;38.92;;;14.15;;
75732;SDS011;64435;47.424;19.400;2022-12-07T04:00:00;43.40;;;17.62;;
75732;SDS011;64435;47.424;19.400;2022-12-07T04:02:28;68.55;;;18.75;;
75732;SDS011;64435;47.424;19.400;2022-12-07T04:04:54;42.40;;;18.07;;
75732;SDS011;64435;47.424;19.400;2022-12-07T04:07:20;42.92;;;18.02;;
75732;SDS011;64435;47.424;19.400;2022-12-07T04:09:46;55.87;;;20.43;;
75732;SDS011;64435;47.424;19.400;2022-12-07T04:12:11;55.40;;;18.70;;
75732;SDS011;64435;47.424;19.400;2022-12-07T04:14:37;45.25;;;19.60;;
75732;SDS011;64435;47.424;19.400;2022-12-07T04:17:02;47.87;;;20.30;;
75732;SDS011;64435;47.424;19.400;2022-12-07T04:19:29;53.80;;;22.43;;
75732;SDS011;64435;47.424;19.400;2022-12-07T04:21:56;44.47;;;19.95;;
75732;SDS011;64435;47.424;19.400;2022-12-07T04:24:22;42.35;;;18.73;;
75732;SDS011;64435;47.424;19.400;2022-12-07T04:26:48;36.87;;;17.87;;
75732;SDS011;64435;47.424;19.400;2022-12-07T04:29:14;40.75;;;18.15;;
75732;SDS011;64435;47.424;19.400;2022-12-07T04:31:43;40.25;;;17.05;;
75732;SDS011;64435;47.424;19.400;2022-12-07T04:34:09;40.63;;;16.77;;
75732;SDS011;64435;47.424;19.400;2022-12-07T04:36:35;41.45;;;17.02;;
75732;SDS011;64435;47.424;19.400;2022-12-07T04:39:00;46.53;;;20.15;;
75732;SDS011;64435;47.424;19.400;2022-12-07T04:41:26;48.37;;;20.33;;
75732;SDS011;64435;47.424;19.400;2022-12-07T04:43:55;43.77;;;21.00;;
75732;SDS011;64435;47.424;19.400;2022-12-07T04:46:26;41.22;;;18.45;;
75732;SDS011;64435;47.424;19.400;2022-12-07T04:48:52;39.78;;;16.42;;
75732;SDS011;64435;47.424;19.400;2022-12-07T04:51:19;44.28;;;17.35;;
75732;SDS011;64435;47.424;19.400;2022-12-07T04:53:45;38.85;;;16.98;;
75732;SDS011;64435;47.424;19.400;2022-12-07T04:56:11;45.23;;;18.73;;
75732;SDS011;64435;47.424;19.400;2022-12-07T04:58:37;43.93;;;19.17;;
75732;SDS011;64435;47.424;19.400;2022-12-07T05:01:02;49.63;;;19.77;;
75732;SDS011;64435;47.424;19.400;2022-12-07T05:03:27;53.60;;;20.17;;
75732;SDS011;64435;47.424;19.400;2022-12-07T05:05:53;52.40;;;19.57;;
75732;SDS011;64435;47.424;19.400;2022-12-07T05:08:18;43.83;;;19.47;;
75732;SDS011;64435;47.424;19.400;2022-12-07T05:10:44;51.03;;;19.73;;
75732;SDS011;64435;47.424;19.400;2022-12-07T05:13:09;52.20;;;20.60;;
75732;SDS011;64435;47.424;19.400;2022-12-07T05:15:34;42.53;;;18.67;;
75732;SDS011;64435;47.424;19.400;2022-12-07T05:18:00;37.13;;;15.90;;
75732;SDS011;64435;47.424;19.400;2022-12-07T05:20:25;44.47;;;18.73;;
75732;SDS011;64435;47.424;19.400;2022-12-07T05:22:51;41.75;;;15.95;;
75732;SDS011;64435;47.424;19.400;2022-12-07T05:25:16;40.27;;;16.27;;
75732;SDS011;64435;47.424;19.400;2022-12-07T05:27:41;40.97;;;16.80;;
75732;SDS011;64435;47.424;19.400;2022-12-07T05:30:07;41.77;;;16.27;;
75732;SDS011;64435;47.424;19.400;2022-12-07T05:32:33;32.95;;;14.80;;
75732;SDS011;64435;47.424;19.400;2022-12-07T05:34:58;39.63;;;15.90;;
75732;SDS011;64435;47.424;19.400;2022-12-07T05:37:24;35.37;;;15.70;;
75732;SDS011;64435;47.424;19.400;2022-12-07T05:39:49;42.60;;;16.80;;
75732;SDS011;64435;47.424;19.400;2022-12-07T05:42:14;38.63;;;17.43;;
75732;SDS011;64435;47.424;19.400;2022-12-07T05:44:42;40.22;;;16.65;;
75732;SDS011;64435;47.424;19.400;2022-12-07T05:47:09;38.23;;;16.03;;
75732;SDS011;64435;47.424;19.400;2022-12-07T05:49:38;38.63;;;15.90;;
75732;SDS011;64435;47.424;19.400;2022-12-07T05:52:04;45.67;;;17.13;;
75732;SDS011;64435;47.424;19.400;2022-12-07T05:54:29;40.35;;;16.52;;
75732;SDS011;64435;47.424;19.400;2022-12-07T05:56:55;74.10;;;32.37;;
75732;SDS011;64435;47.424;19.400;2022-12-07T05:59:20;72.97;;;30.63;;
75732;SDS011;64435;47.424;19.400;2022-12-07T06:04:18;46.72;;;22.62;;
75732;SDS011;64435;47.424;19.400;2022-12-07T06:06:44;42.03;;;18.85;;
75732;SDS011;64435;47.424;19.400;2022-12-07T06:09:09;42.37;;;17.37;;
75732;SDS011;64435;47.424;19.400;2022-12-07T06:11:35;41.47;;;18.37;;
75732;SDS011;64435;47.424;19.400;2022-12-07T06:14:19;68.60;;;28.50;;
75732;SDS011;64435;47.424;19.400;2022-12-07T06:16:44;70.93;;;28.67;;
75732;SDS011;64435;47.424;19.400;2022-12-07T06:19:10;84.67;;;31.63;;
75732;SDS011;64435;47.424;19.400;2022-12-07T06:21:35;63.80;;;24.67;;
75732;SDS011;64435;47.424;19.400;2022-12-07T06:24:01;43.90;;;19.73;;
75732;SDS011;64435;47.424;19.400;2022-12-07T06:26:26;40.20;;;19.58;;
75732;SDS011;64435;47.424;19.400;2022-12-07T06:28:52;42.30;;;19.70;;
75732;SDS011;64435;47.424;19.400;2022-12-07T06:31:17;51.92;;;21.20;;
75732;SDS011;64435;47.424;19.400;2022-12-07T06:33:43;43.17;;;20.00;;
75732;SDS011;64435;47.424;19.400;2022-12-07T06:36:08;42.43;;;18.67;;
75732;SDS011;64435;47.424;19.400;2022-12-07T06:38:34;48.15;;;20.70;;
75732;SDS011;64435;47.424;19.400;2022-12-07T06:41:00;51.70;;;20.40;;
75732;SDS011;64435;47.424;19.400;2022-12-07T06:43:25;47.80;;;21.23;;
75732;SDS011;64435;47.424;19.400;2022-12-07T06:45:51;55.43;;;24.43;;
75732;SDS011;64435;47.424;19.400;2022-12-07T06:48:16;51.73;;;23.63;;
75732;SDS011;64435;47.424;19.400;2022-12-07T06:50:43;51.57;;;21.80;;
75732;SDS011;64435;47.424;19.400;2022-12-07T06:53:09;52.67;;;21.75;;
75732;SDS011;64435;47.424;19.400;2022-12-07T06:55:35;44.77;;;20.30;;
75732;SDS011;64435;47.424;19.400;2022-12-07T06:58:00;42.23;;;19.57;;
75732;SDS011;64435;47.424;19.400;2022-12-07T07:00:26;45.90;;;20.88;;
75732;SDS011;64435;47.424;19.400;2022-12-07T07:02:52;48.83;;;22.70;;
75732;SDS011;64435;47.424;19.400;2022-12-07T07:05:17;51.30;;;22.63;;
75732;SDS011;64435;47.424;19.400;2022-12-07T07:07:42;45.80;;;21.27;;
75732;SDS011;64435;47.424;19.400;2022-12-07T07:10:08;53.70;;;23.37;;
75732;SDS011;64435;47.424;19.400;2022-12-07T07:12:34;47.60;;;21.42;;
75732;SDS011;64435;47.424;19.400;2022-12-07T07:14:59;51.97;;;22.00;;
75732;SDS011;64435;47.424;19.400;2022-12-07T07:17:25;50.00;;;21.93;;
75732;SDS011;64435;47.424;19.400;2022-12-07T07:19:50;49.40;;;21.37;;
75732;SDS011;64435;47.424;19.400;2022-12-07T07:22:15;44.22;;;19.45;;
75732;SDS011;64435;47.424;19.400;2022-12-07T07:24:41;49.93;;;21.17;;
75732;SDS011;64435;47.424;19.400;2022-12-07T07:27:06;49.67;;;21.50;;
75732;SDS011;64435;47.424;19.400;2022-12-07T07:29:32;48.93;;;19.60;;
75732;SDS011;64435;47.424;19.400;2022-12-07T07:31:57;45.43;;;20.00;;
75732;SDS011;64435;47.424;19.400;2022-12-07T07:34:22;48.97;;;20.03;;
75732;SDS011;64435;47.424;19.400;2022-12-07T07:36:48;45.63;;;17.90;;
75732;SDS011;64435;47.424;19.400;2022-12-07T07:39:13;38.87;;;17.73;;
75732;SDS011;64435;47.424;19.400;2022-12-07T07:41:39;45.65;;;18.77;;
75732;SDS011;64435;47.424;19.400;2022-12-07T07:44:04;47.93;;;18.57;;
75732;SDS011;64435;47.424;19.400;2022-12-07T07:46:29;46.23;;;19.00;;
75732;SDS011;64435;47.424;19.400;2022-12-07T07:48:55;49.83;;;18.23;;
75732;SDS011;64435;47.424;19.400;2022-12-07T07:51:20;45.67;;;19.63;;
75732;SDS011;64435;47.424;19.400;2022-12-07T07:53:46;55.67;;;21.70;;
75732;SDS011;64435;47.424;19.400;2022-12-07T07:56:11;44.47;;;16.30;;
75732;SDS011;64435;47.424;19.400;2022-12-07T07:58:37;42.77;;;16.80;;
75732;SDS011;64435;47.424;19.400;2022-12-07T08:01:04;38.25;;;14.43;;
75732;SDS011;64435;47.424;19.400;2022-12-07T08:03:33;47.58;;;19.40;;
75732;SDS011;64435;47.424;19.400;2022-12-07T08:05:58;68.13;;;20.63;;
75732;SDS011;64435;47.424;19.400;2022-12-07T08:08:24;49.33;;;19.40;;
75732;SDS011;64435;47.424;19.400;2022-12-07T08:10:49;58.85;;;19.87;;
75732;SDS011;64435;47.424;19.400;2022-12-07T08:13:15;59.63;;;19.97;;
75732;SDS011;64435;47.424;19.400;2022-12-07T08:15:45;57.22;;;19.98;;
75732;SDS011;64435;47.424;19.400;2022-12-07T08:18:11;67.55;;;18.90;;
75732;SDS011;64435;47.424;19.400;2022-12-07T08:20:38;54.03;;;19.02;;
75732;SDS011;64435;47.424;19.400;2022-12-07T08:23:05;55.83;;;19.55;;
75732;SDS011;64435;47.424;19.400;2022-12-07T08:25:31;56.30;;;18.00;;
75732;SDS011;64435;47.424;19.400;2022-12-07T08:27:57;56.10;;;20.80;;
75732;SDS011;64435;47.424;19.400;2022-12-07T08:30:23;55.58;;;21.60;;
75732;SDS011;64435;47.424;19.400;2022-12-07T08:32:48;49.43;;;18.63;;
75732;SDS011;64435;47.424;19.400;2022-12-07T08:35:14;53.37;;;19.90;;
75732;SDS011;64435;47.424;19.400;2022-12-07T08:37:40;47.45;;;18.95;;
75732;SDS011;64435;47.424;19.400;2022-12-07T08:40:06;42.78;;;18.50;;
75732;SDS011;64435;47.424;19.400;2022-12-07T08:42:33;38.58;;;17.60;;
75732;SDS011;64435;47.424;19.400;2022-12-07T08:45:05;35.95;;;18.12;;
75732;SDS011;64435;47.424;19.400;2022-12-07T08:47:35;37.57;;;17.27;;
75732;SDS011;64435;47.424;19.400;2022-12-07T08:50:03;37.85;;;18.48;;
75732;SDS011;64435;47.424;19.400;2022-12-07T08:52:32;39.70;;;18.87;;
75732;SDS011;64435;47.424;19.400;2022-12-07T08:54:59;37.72;;;17.60;;
75732;SDS011;64435;47.424;19.400;2022-12-07T08:57:25;38.73;;;19.00;;
75732;SDS011;64435;47.424;19.400;2022-12-07T08:59:51;40.12;;;19.17;;
75732;SDS011;64435;47.424;19.400;2022-12-07T09:02:17;34.33;;;16.13;;
75732;SDS011;64435;47.424;19.400;2022-12-07T09:04:42;37.17;;;17.55;;
75732;SDS011;64435;47.424;19.400;2022-12-07T09:07:07;36.87;;;18.03;;
75732;SDS011;64435;47.424;19.400;2022-12-07T09:09:33;36.47;;;17.98;;
75732;SDS011;64435;47.424;19.400;2022-12-07T09:11:59;37.97;;;17.47;;
75732;SDS011;64435;47.424;19.400;2022-12-07T09:14:24;37.93;;;17.40;;
75732;SDS011;64435;47.424;19.400;2022-12-07T09:16:50;40.50;;;19.00;;
75732;SDS011;64435;47.424;19.400;2022-12-07T09:19:15;36.13;;;18.33;;
75732;SDS011;64435;47.424;19.400;2022-12-07T09:21:41;39.92;;;19.90;;
75732;SDS011;64435;47.424;19.400;2022-12-07T09:24:06;43.47;;;19.57;;
75732;SDS011;64435;47.424;19.400;2022-12-07T09:26:32;43.20;;;19.00;;
75732;SDS011;64435;47.424;19.400;2022-12-07T09:28:57;43.03;;;19.07;;
75732;SDS011;64435;47.424;19.400;2022-12-07T09:31:22;44.90;;;18.67;;
75732;SDS011;64435;47.424;19.400;2022-12-07T09:33:52;38.97;;;17.83;;
75732;SDS011;64435;47.424;19.400;2022-12-07T09:36:25;38.78;;;17.87;;
75732;SDS011;64435;47.424;19.400;2022-12-07T09:38:51;33.92;;;17.00;;
75732;SDS011;64435;47.424;19.400;2022-12-07T09:41:16;37.17;;;17.70;;
75732;SDS011;64435;47.424;19.400;2022-12-07T09:43:42;32.20;;;16.17;;
75732;SDS011;64435;47.424;19.400;2022-12-07T09:46:08;29.33;;;14.50;;
75732;SDS011;64435;47.424;19.400;2022-12-07T09:48:38;33.03;;;15.90;;
75732;SDS011;64435;47.424;19.400;2022-12-07T09:51:13;32.57;;;15.77;;
75732;SDS011;64435;47.424;19.400;2022-12-07T09:53:43;35.38;;;16.37;;
75732;SDS011;64435;47.424;19.400;2022-12-07T09:56:11;34.88;;;17.50;;
75732;SDS011;64435;47.424;19.400;2022-12-07T09:58:41;35.83;;;16.33;;
75732;SDS011;64435;47.424;19.400;2022-12-07T10:01:11;34.97;;;17.45;;
75732;SDS011;64435;47.424;19.400;2022-12-07T10:03:39;32.38;;;17.27;;
75732;SDS011;64435;47.424;19.400;2022-12-07T10:06:14;29.83;;;16.33;;
75732;SDS011;64435;47.424;19.400;2022-12-07T10:08:39;37.83;;;17.80;;
75732;SDS011;64435;47.424;19.400;2022-12-07T10:11:06;35.78;;;17.87;;
75732;SDS011;64435;47.424;19.400;2022-12-07T10:13:39;33.90;;;17.33;;
75732;SDS011;64435;47.424;19.400;2022-12-07T10:16:06;31.70;;;17.30;;
75732;SDS011;64435;47.424;19.400;2022-12-07T10:18:49;31.20;;;16.02;;
75732;SDS011;64435;47.424;19.400;2022-12-07T10:21:24;29.20;;;15.63;;
75732;SDS011;64435;47.424;19.400;2022-12-07T10:24:08;30.07;;;14.13;;
75732;SDS011;64435;47.424;19.400;2022-12-07T10:29:16;27.42;;;15.38;;
75732;SDS011;64435;47.424;19.400;2022-12-07T10:31:45;28.40;;;15.10;;
75732;SDS011;64435;47.424;19.400;2022-12-07T10:34:23;29.40;;;15.52;;
75732;SDS011;64435;47.424;19.400;2022-12-07T10:36:50;26.97;;;15.07;;
75732;SDS011;64435;47.424;19.400;2022-12-07T10:39:20;27.75;;;14.48;;
75732;SDS011;64435;47.424;19.400;2022-12-07T10:41:57;28.23;;;14.63;;
75732;SDS011;64435;47.424;19.400;2022-12-07T10:44:25;28.55;;;16.55;;
75732;SDS011;64435;47.424;19.400;2022-12-07T11:02:25;24.05;;;14.13;;
75732;SDS011;64435;47.424;19.400;2022-12-07T11:08:05;27.30;;;14.50;;
75732;SDS011;64435;47.424;19.400;2022-12-07T11:24:02;19.50;;;12.73;;
75732;SDS011;64435;47.424;19.400;2022-12-07T11:29:23;23.00;;;12.80;;
75732;SDS011;64435;47.424;19.400;2022-12-07T11:37:32;22.50;;;13.48;;
75732;SDS011;64435;47.424;19.400;2022-12-07T11:40:00;24.33;;;13.20;;
75732;SDS011;64435;47.424;19.400;2022-12-07T11:43:11;24.48;;;13.18;;
75732;SDS011;64435;47.424;19.400;2022-12-07T11:45:37;18.30;;;11.38;;
75732;SDS011;64435;47.424;19.400;2022-12-07T11:51:03;22.95;;;12.77;;
75732;SDS011;64435;47.424;19.400;2022-12-07T11:53:39;20.23;;;11.50;;
75732;SDS011;64435;47.424;19.400;2022-12-07T12:03:58;18.42;;;11.38;;
75732;SDS011;64435;47.424;19.400;2022-12-07T12:06:29;21.58;;;12.88;;
75732;SDS011;64435;47.424;19.400;2022-12-07T12:22:43;20.00;;;11.10;;
75732;SDS011;64435;47.424;19.400;2022-12-07T12:25:36;18.05;;;10.60;;
75732;SDS011;64435;47.424;19.400;2022-12-07T12:28:15;19.98;;;11.27;;
75732;SDS011;64435;47.424;19.400;2022-12-07T12:33:34;21.57;;;10.87;;
75732;SDS011;64435;47.424;19.400;2022-12-07T12:36:17;17.35;;;10.52;;
75732;SDS011;64435;47.424;19.400;2022-12-07T12:44:00;19.00;;;11.70;;
75732;SDS011;64435;47.424;19.400;2022-12-07T12:48:54;18.42;;;11.05;;
75732;SDS011;64435;47.424;19.400;2022-12-07T12:51:36;20.40;;;11.52;;
75732;SDS011;64435;47.424;19.400;2022-12-07T12:54:04;16.83;;;10.03;;
75732;SDS011;64435;47.424;19.400;2022-12-07T12:56:41;19.90;;;10.77;;
75732;SDS011;64435;47.424;19.400;2022-12-07T13:01:49;18.37;;;10.68;;
75732;SDS011;64435;47.424;19.400;2022-12-07T13:06:50;17.80;;;10.27;;
75732;SDS011;64435;47.424;19.400;2022-12-07T13:09:34;19.90;;;10.65;;
75732;SDS011;64435;47.424;19.400;2022-12-07T13:12:02;18.30;;;10.52;;
75732;SDS011;64435;47.424;19.400;2022-12-07T13:17:07;14.05;;;8.45;;
75732;SDS011;64435;47.424;19.400;2022-12-07T13:20:39;11.57;;;6.17;;
75732;SDS011;64435;47.424;19.400;2022-12-07T13:25:12;10.90;;;6.20;;
75732;SDS011;64435;47.424;19.400;2022-12-07T13:27:50;12.32;;;5.47;;
75732;SDS011;64435;47.424;19.400;2022-12-07T13:30:20;12.20;;;5.78;;
75732;SDS011;64435;47.424;19.400;2022-12-07T13:32:53;10.70;;;5.77;;
75732;SDS011;64435;47.424;19.400;2022-12-07T13:35:35;11.40;;;6.32;;
75732;SDS011;64435;47.424;19.400;2022-12-07T13:38:13;11.95;;;6.25;;
75732;SDS011;64435;47.424;19.400;2022-12-07T13:40:43;12.85;;;7.35;;
75732;SDS011;64435;47.424;19.400;2022-12-07T13:43:24;13.02;;;6.93;;
75732;SDS011;64435;47.424;19.400;2022-12-07T13:45:55;12.40;;;6.43;;
75732;SDS011;64435;47.424;19.400;2022-12-07T13:48:31;12.40;;;7.05;;
75732;SDS011;64435;47.424;19.400;2022-12-07T13:53:49;13.68;;;7.05;;
75732;SDS011;64435;47.424;19.400;2022-12-07T13:56:15;14.10;;;8.05;;
75732;SDS011;64435;47.424;19.400;2022-12-07T13:58:41;14.10;;;7.27;;
75732;SDS011;64435;47.424;19.400;2022-12-07T14:01:06;18.05;;;9.35;;
75732;SDS011;64435;47.424;19.400;2022-12-07T14:03:33;17.17;;;9.07;;
75732;SDS011;64435;47.424;19.400;2022-12-07T14:06:03;17.50;;;8.57;;
75732;SDS011;64435;47.424;19.400;2022-12-07T14:08:31;18.23;;;9.27;;
75732;SDS011;64435;47.424;19.400;2022-12-07T14:10:57;16.33;;;9.67;;
75732;SDS011;64435;47.424;19.400;2022-12-07T14:13:36;19.58;;;10.23;;
75732;SDS011;64435;47.424;19.400;2022-12-07T14:16:28;18.97;;;10.23;;
75732;SDS011;64435;47.424;19.400;2022-12-07T14:18:57;20.15;;;11.07;;
75732;SDS011;64435;47.424;19.400;2022-12-07T14:21:24;23.15;;;11.10;;
75732;SDS011;64435;47.424;19.400;2022-12-07T14:26:43;17.35;;;9.30;;
75732;SDS011;64435;47.424;19.400;2022-12-07T14:29:27;19.40;;;10.27;;
75732;SDS011;64435;47.424;19.400;2022-12-07T14:32:09;22.02;;;11.75;;
75732;SDS011;64435;47.424;19.400;2022-12-07T14:35:03;19.08;;;9.85;;
75732;SDS011;64435;47.424;19.400;2022-12-07T14:37:35;18.30;;;8.82;;
75732;SDS011;64435;47.424;19.400;2022-12-07T14:40:01;20.23;;;9.43;;
75732;SDS011;64435;47.424;19.400;2022-12-07T14:42:27;18.12;;;9.38;;
75732;SDS011;64435;47.424;19.400;2022-12-07T14:44:54;22.53;;;9.70;;
75732;SDS011;64435;47.424;19.400;2022-12-07T14:47:19;18.98;;;9.55;;
75732;SDS011;64435;47.424;19.400;2022-12-07T14:49:45;19.20;;;9.30;;
75732;SDS011;64435;47.424;19.400;2022-12-07T14:52:17;17.25;;;9.45;;
75732;SDS011;64435;47.424;19.400;2022-12-07T14:54:45;14.00;;;6.90;;
75732;SDS011;64435;47.424;19.400;2022-12-07T14:57:11;14.70;;;6.95;;
75732;SDS011;64435;47.424;19.400;2022-12-07T14:59:36;12.57;;;7.60;;
75732;SDS011;64435;47.424;19.400;2022-12-07T15:02:02;14.10;;;7.37;;
75732;SDS011;64435;47.424;19.400;2022-12-07T15:04:27;14.07;;;7.68;;
75732;SDS011;64435;47.424;19.400;2022-12-07T15:06:56;16.33;;;7.80;;
75732;SDS011;64435;47.424;19.400;2022-12-07T15:09:23;16.58;;;9.57;;
75732;SDS011;64435;47.424;19.400;2022-12-07T15:11:48;18.37;;;9.07;;
75732;SDS011;64435;47.424;19.400;2022-12-07T15:14:13;17.97;;;8.30;;
75732;SDS011;64435;47.424;19.400;2022-12-07T15:16:40;17.33;;;8.00;;
75732;SDS011;64435;47.424;19.400;2022-12-07T15:19:14;16.40;;;8.38;;
75732;SDS011;64435;47.424;19.400;2022-12-07T15:21:41;15.48;;;8.02;;
75732;SDS011;64435;47.424;19.400;2022-12-07T15:24:08;20.20;;;9.52;;
75732;SDS011;64435;47.424;19.400;2022-12-07T15:26:35;21.63;;;9.87;;
75732;SDS011;64435;47.424;19.400;2022-12-07T15:29:00;21.65;;;11.23;;
75732;SDS011;64435;47.424;19.400;2022-12-07T15:31:25;32.50;;;13.00;;
75732;SDS011;64435;47.424;19.400;2022-12-07T15:33:51;71.53;;;27.53;;
75732;SDS011;64435;47.424;19.400;2022-12-07T15:36:21;97.40;;;32.77;;
75732;SDS011;64435;47.424;19.400;2022-12-07T15:38:48;55.80;;;22.70;;
75732;SDS011;64435;47.424;19.400;2022-12-07T15:41:14;39.10;;;16.00;;
75732;SDS011;64435;47.424;19.400;2022-12-07T15:43:39;31.10;;;14.48;;
75732;SDS011;64435;47.424;19.400;2022-12-07T15:46:23;42.90;;;18.48;;
75732;SDS011;64435;47.424;19.400;2022-12-07T15:48:49;52.63;;;22.33;;
75732;SDS011;64435;47.424;19.400;2022-12-07T15:51:14;45.55;;;20.25;;
75732;SDS011;64435;47.424;19.400;2022-12-07T15:53:40;40.83;;;19.33;;
75732;SDS011;64435;47.424;19.400;2022-12-07T15:56:05;36.80;;;18.00;;
75732;SDS011;64435;47.424;19.400;2022-12-07T15:58:31;36.70;;;17.48;;
75732;SDS011;64435;47.424;19.400;2022-12-07T16:00:57;52.67;;;23.60;;
75732;SDS011;64435;47.424;19.400;2022-12-07T16:03:22;39.10;;;18.03;;
75732;SDS011;64435;47.424;19.400;2022-12-07T16:05:48;54.03;;;24.90;;
75732;SDS011;64435;47.424;19.400;2022-12-07T16:08:14;50.92;;;23.50;;
75732;SDS011;64435;47.424;19.400;2022-12-07T16:10:40;53.73;;;26.00;;
75732;SDS011;64435;47.424;19.400;2022-12-07T16:13:08;51.72;;;26.12;;
75732;SDS011;64435;47.424;19.400;2022-12-07T16:15:40;56.55;;;26.15;;
75732;SDS011;64435;47.424;19.400;2022-12-07T16:18:06;43.90;;;20.50;;
75732;SDS011;64435;47.424;19.400;2022-12-07T16:20:31;45.17;;;22.00;;
75732;SDS011;64435;47.424;19.400;2022-12-07T16:22:57;41.60;;;19.37;;
75732;SDS011;64435;47.424;19.400;2022-12-07T16:25:22;40.45;;;19.10;;
75732;SDS011;64435;47.424;19.400;2022-12-07T16:27:48;37.77;;;18.60;;
75732;SDS011;64435;47.424;19.400;2022-12-07T16:30:14;41.00;;;18.70;;
75732;SDS011;64435;47.424;19.400;2022-12-07T16:32:41;37.67;;;17.53;;
75732;SDS011;64435;47.424;19.400;2022-12-07T16:35:06;36.05;;;17.70;;